createdAt,value
2023-03-26T00:00:13.299Z,26.02
2023-03-26T00:01:23.925Z,25.15
2023-03-26T00:02:29.998Z,23.63
2023-03-26T00:03:34.778Z,22.63
2023-03-26T00:04:38.577Z,27.23
2023-03-26T00:05:41.321Z,22.55
2023-03-26T00:06:44.909Z,29.42
2023-03-26T00:07:48.928Z,25.13
2023-03-26T00:08:53.366Z,25.58
2023-03-26T00:09:56.123Z,25.83
2023-03-26T00:11:01.052Z,25.23
2023-03-26T00:12:05.087Z,22.13
2023-03-26T00:13:08.433Z,26.90
2023-03-26T00:14:14.219Z,25.30
2023-03-26T00:15:16.832Z,25.17
2023-03-26T00:16:22.452Z,26.23
2023-03-26T00:17:25.140Z,27.88
2023-03-26T00:18:31.730Z,25.77
2023-03-26T00:19:34.390Z,25.33
2023-03-26T00:20:38.540Z,26.40
2023-03-26T00:21:41.687Z,25.65
2023-03-26T00:22:45.774Z,29.13
2023-03-26T00:23:49.469Z,27.08
2023-03-26T00:25:56.485Z,24.02
2023-03-26T00:27:01.198Z,27.33
2023-03-26T00:28:04.374Z,30.40
2023-03-26T00:29:10.012Z,30.35
2023-03-26T00:30:13.118Z,30.63
2023-03-26T00:31:17.070Z,27.98
2023-03-26T00:32:21.116Z,29.75
2023-03-26T00:33:25.037Z,27.65
2023-03-26T00:34:27.496Z,26.17
2023-03-26T00:35:31.394Z,31.60
2023-03-26T00:36:36.339Z,29.65
2023-03-26T00:37:43.286Z,27.73
2023-03-26T00:38:47.217Z,30.75
2023-03-26T00:39:50.800Z,28.63
2023-03-26T00:40:53.591Z,30.08
2023-03-26T00:41:57.388Z,25.40
2023-03-26T00:42:59.888Z,28.38
2023-03-26T00:44:03.682Z,26.27
2023-03-26T00:46:10.061Z,27.42
2023-03-26T00:47:13.416Z,25.80
2023-03-26T00:48:19.514Z,28.00
2023-03-26T00:49:22.189Z,26.00
2023-03-26T00:50:25.865Z,27.42
2023-03-26T00:52:32.214Z,26.83
2023-03-26T00:53:34.651Z,28.80
2023-03-26T00:54:38.470Z,28.13
2023-03-26T00:55:41.748Z,26.13
2023-03-26T00:56:45.274Z,28.00
2023-03-26T00:57:47.763Z,28.15
2023-03-26T00:58:51.627Z,30.33
2023-03-26T00:59:54.210Z,27.52
2023-03-26T01:01:00.904Z,28.95
2023-03-26T01:02:05.213Z,27.33
2023-03-26T01:03:07.905Z,26.08
2023-03-26T01:04:32.087Z,28.08
2023-03-26T01:05:53.369Z,27.63
2023-03-26T01:06:58.716Z,27.17
2023-03-26T01:08:02.188Z,31.50
2023-03-26T01:09:12.868Z,27.67
2023-03-26T01:10:15.354Z,29.17
2023-03-26T01:11:22.165Z,27.73
2023-03-26T01:12:28.122Z,25.52
2023-03-26T01:13:35.341Z,29.85
2023-03-26T01:14:38.796Z,29.05
2023-03-26T01:15:42.552Z,26.70
2023-03-26T01:16:50.246Z,31.05
2023-03-26T01:17:58.057Z,26.88
2023-03-26T01:19:02.378Z,27.08
2023-03-26T01:20:15.220Z,27.38
2023-03-26T01:21:23.602Z,27.95
2023-03-26T01:22:27.962Z,31.15
2023-03-26T01:23:39.544Z,29.88
2023-03-26T01:24:46.451Z,26.52
2023-03-26T01:25:56.276Z,30.95
2023-03-26T01:27:11.163Z,28.63
2023-03-26T01:28:14.432Z,28.73
2023-03-26T01:29:23.954Z,27.35
2023-03-26T01:30:35.081Z,27.77
2023-03-26T01:31:48.593Z,27.90
2023-03-26T01:32:59.310Z,28.90
2023-03-26T01:34:12.653Z,26.70
2023-03-26T01:35:29.626Z,28.80
2023-03-26T01:36:40.797Z,28.20
2023-03-26T01:37:53.948Z,31.13
2023-03-26T01:39:04.741Z,29.38
2023-03-26T01:40:12.611Z,26.48
2023-03-26T01:41:22.583Z,26.58
2023-03-26T01:43:37.805Z,27.92
2023-03-26T01:44:48.410Z,27.65
2023-03-26T01:45:53.972Z,27.88
2023-03-26T01:46:59.234Z,28.27
2023-03-26T01:48:03.260Z,28.60
2023-03-26T01:49:06.839Z,30.92
2023-03-26T01:50:11.403Z,29.05
2023-03-26T01:51:25.655Z,28.65
2023-03-26T01:52:29.248Z,29.98
2023-03-26T01:53:33.666Z,30.95
2023-03-26T01:54:37.362Z,26.90
2023-03-26T01:57:04.445Z,29.05
2023-03-26T01:58:12.964Z,26.00
2023-03-26T01:59:33.975Z,26.77
2023-03-26T02:00:42.635Z,23.95
2023-03-26T02:01:55.036Z,26.48
2023-03-26T02:03:18.034Z,24.13
2023-03-26T02:04:26.778Z,26.17
2023-03-26T02:05:35.442Z,26.77
2023-03-26T02:06:45.154Z,25.20
2023-03-26T02:07:54.473Z,25.67
2023-03-26T02:09:01.227Z,26.00
2023-03-26T02:10:10.604Z,28.95
2023-03-26T02:11:16.655Z,27.05
2023-03-26T02:12:22.871Z,24.70
2023-03-26T02:13:26.084Z,26.85
2023-03-26T02:14:31.527Z,25.42
2023-03-26T02:15:34.147Z,27.42
2023-03-26T02:16:37.841Z,24.88
2023-03-26T02:18:45.283Z,23.95
2023-03-26T02:19:48.324Z,24.83
2023-03-26T02:20:53.269Z,27.05
2023-03-26T02:22:00.095Z,24.23
2023-03-26T02:23:02.564Z,26.48
2023-03-26T02:24:06.364Z,28.05
2023-03-26T02:25:10.884Z,23.88
2023-03-26T02:26:18.733Z,24.25
2023-03-26T02:27:21.296Z,25.88
2023-03-26T02:28:24.946Z,25.00
2023-03-26T02:30:34.068Z,23.13
2023-03-26T02:31:36.961Z,30.17
2023-03-26T02:32:40.784Z,23.17
2023-03-26T02:33:44.871Z,24.80
2023-03-26T02:34:48.437Z,27.42
2023-03-26T02:35:50.995Z,23.33
2023-03-26T02:36:54.766Z,24.15
2023-03-26T02:39:01.231Z,24.08
2023-03-26T02:40:05.565Z,23.58
2023-03-26T02:41:09.552Z,30.08
2023-03-26T02:42:13.553Z,25.38
2023-03-26T02:43:17.135Z,24.35
2023-03-26T02:44:19.636Z,27.33
2023-03-26T02:45:23.431Z,23.23
2023-03-26T02:47:29.354Z,23.45
2023-03-26T02:49:35.466Z,23.55
2023-03-26T02:50:39.606Z,24.15
2023-03-26T02:51:42.267Z,26.63
2023-03-26T02:52:49.261Z,23.35
2023-03-26T02:53:53.895Z,25.55
2023-03-26T02:54:57.438Z,23.65
2023-03-26T02:56:00.823Z,24.88
2023-03-26T02:57:04.670Z,25.58
2023-03-26T02:58:08.795Z,25.23
2023-03-26T02:59:12.373Z,22.88
2023-03-26T03:00:15.569Z,23.33
2023-03-26T03:01:19.223Z,27.48
2023-03-26T03:03:30.272Z,24.00
2023-03-26T03:04:32.763Z,23.38
2023-03-26T03:05:38.290Z,24.55
2023-03-26T03:06:40.878Z,23.13
2023-03-26T03:07:46.784Z,25.58
2023-03-26T03:08:50.206Z,21.90
2023-03-26T03:09:53.749Z,24.90
2023-03-26T03:10:57.951Z,22.65
2023-03-26T03:12:01.543Z,20.98
2023-03-26T03:13:06.232Z,23.60
2023-03-26T03:14:11.303Z,22.80
2023-03-26T03:15:14.260Z,20.77
2023-03-26T03:16:18.615Z,21.67
2023-03-26T03:17:21.331Z,25.90
2023-03-26T03:18:25.034Z,23.55
2023-03-26T03:21:33.639Z,21.50
2023-03-26T03:22:37.207Z,22.08
2023-03-26T03:23:39.867Z,20.73
2023-03-26T03:24:44.026Z,23.10
2023-03-26T03:25:47.021Z,22.65
2023-03-26T03:26:50.540Z,20.70
2023-03-26T03:27:54.144Z,20.90
2023-03-26T03:28:58.718Z,23.13
2023-03-26T03:30:03.118Z,24.65
2023-03-26T03:31:09.294Z,23.35
2023-03-26T03:32:11.826Z,21.45
2023-03-26T03:33:15.629Z,20.73
2023-03-26T03:34:19.270Z,21.70
2023-03-26T03:36:28.078Z,18.98
2023-03-26T03:37:30.908Z,21.88
2023-03-26T03:38:34.595Z,25.55
2023-03-26T03:39:37.208Z,22.02
2023-03-26T03:40:40.767Z,21.92
2023-03-26T03:41:43.318Z,22.08
2023-03-26T03:42:46.926Z,21.83
2023-03-26T03:43:49.416Z,20.65
2023-03-26T03:44:53.184Z,23.20
2023-03-26T03:45:57.809Z,20.55
2023-03-26T03:47:01.761Z,21.38
2023-03-26T03:49:07.588Z,21.70
2023-03-26T03:50:11.081Z,22.20
2023-03-26T03:51:14.571Z,26.10
2023-03-26T03:52:18.304Z,22.48
2023-03-26T03:54:24.410Z,20.33
2023-03-26T03:55:29.011Z,22.73
2023-03-26T03:56:31.560Z,21.13
2023-03-26T03:57:35.340Z,21.38
2023-03-26T03:59:47.310Z,23.10
2023-03-26T04:00:51.718Z,22.67
2023-03-26T04:01:56.638Z,21.88
2023-03-26T04:02:59.394Z,23.10
2023-03-26T04:04:03.096Z,21.33
2023-03-26T04:06:11.353Z,20.88
2023-03-26T04:07:13.867Z,21.65
2023-03-26T04:08:18.079Z,22.05
2023-03-26T04:09:20.536Z,23.33
2023-03-26T04:10:24.116Z,23.80
2023-03-26T04:11:26.764Z,21.88
2023-03-26T04:12:30.646Z,23.08
2023-03-26T04:13:33.191Z,25.25
2023-03-26T04:14:36.839Z,21.52
2023-03-26T04:17:46.488Z,24.35
2023-03-26T04:18:50.039Z,21.35
2023-03-26T04:19:53.352Z,22.17
2023-03-26T04:20:57.016Z,19.95
2023-03-26T04:23:06.708Z,19.45
2023-03-26T04:24:09.348Z,22.25
2023-03-26T04:25:13.983Z,22.80
2023-03-26T04:26:19.995Z,21.52
2023-03-26T04:27:30.582Z,23.13
2023-03-26T04:28:36.667Z,22.52
2023-03-26T04:29:44.330Z,25.05
2023-03-26T04:30:46.760Z,18.98
2023-03-26T04:31:50.795Z,20.70
2023-03-26T04:32:58.813Z,20.80
2023-03-26T04:34:08.607Z,22.85
2023-03-26T04:35:13.610Z,21.90
2023-03-26T04:36:18.554Z,20.05
2023-03-26T04:37:27.732Z,20.05
2023-03-26T04:38:35.835Z,21.92
2023-03-26T04:39:39.234Z,21.02
2023-03-26T04:40:42.759Z,21.92
2023-03-26T04:41:45.208Z,21.40
2023-03-26T04:42:48.972Z,23.25
2023-03-26T04:43:53.360Z,20.52
2023-03-26T04:44:59.877Z,19.08
2023-03-26T04:46:03.562Z,22.35
2023-03-26T04:47:07.203Z,20.10
2023-03-26T04:49:18.308Z,19.92
2023-03-26T04:50:21.136Z,22.27
2023-03-26T04:51:28.226Z,21.17
2023-03-26T04:52:31.052Z,21.58
2023-03-26T04:53:36.879Z,19.80
2023-03-26T04:54:39.664Z,20.85
2023-03-26T04:55:49.184Z,20.73
2023-03-26T04:56:55.542Z,19.75
2023-03-26T04:58:03.601Z,17.08
2023-03-26T04:59:08.269Z,20.50
2023-03-26T05:00:18.950Z,19.90
2023-03-26T05:01:22.214Z,18.88
2023-03-26T05:02:26.314Z,20.20
2023-03-26T05:03:32.093Z,19.17
2023-03-26T05:04:37.042Z,19.73
2023-03-26T05:05:40.301Z,19.80
2023-03-26T05:06:43.941Z,19.85
2023-03-26T05:08:49.845Z,17.67
2023-03-26T05:10:55.858Z,18.73
2023-03-26T05:11:58.737Z,20.63
2023-03-26T05:13:02.333Z,17.88
2023-03-26T05:14:04.801Z,16.65
2023-03-26T05:15:10.277Z,17.08
2023-03-26T05:16:12.827Z,20.42
2023-03-26T05:17:19.091Z,18.05
2023-03-26T05:18:21.563Z,19.48
2023-03-26T05:19:26.563Z,17.02
2023-03-26T05:20:31.342Z,16.60
2023-03-26T05:21:35.200Z,17.90
2023-03-26T05:22:38.806Z,18.73
2023-03-26T05:23:42.447Z,21.13
2023-03-26T05:25:48.505Z,19.00
2023-03-26T05:26:51.163Z,19.73
2023-03-26T05:27:54.676Z,21.90
2023-03-26T05:28:57.206Z,19.63
2023-03-26T05:30:02.885Z,22.10
2023-03-26T05:31:07.264Z,17.77
2023-03-26T05:32:11.699Z,19.23
2023-03-26T05:33:14.315Z,19.35
2023-03-26T05:34:17.975Z,18.33
2023-03-26T05:35:21.963Z,18.42
2023-03-26T05:36:26.185Z,15.95
2023-03-26T05:37:31.310Z,21.42
2023-03-26T05:38:35.887Z,16.42
2023-03-26T05:39:38.661Z,17.05
2023-03-26T05:40:42.253Z,14.98
2023-03-26T05:42:48.123Z,17.05
2023-03-26T05:44:54.848Z,16.63
2023-03-26T05:45:57.632Z,15.68
2023-03-26T05:47:01.247Z,16.35
2023-03-26T05:48:03.982Z,16.48
2023-03-26T05:49:07.628Z,17.80
2023-03-26T05:50:11.501Z,17.20
2023-03-26T05:51:16.929Z,17.45
2023-03-26T05:52:19.402Z,18.90
2023-03-26T05:53:24.376Z,16.85
2023-03-26T05:54:26.988Z,18.83
2023-03-26T05:55:33.598Z,18.70
2023-03-26T05:56:36.233Z,16.67
2023-03-26T05:57:39.785Z,16.33
2023-03-26T05:58:42.944Z,15.80
2023-03-26T05:59:46.538Z,16.75
2023-03-26T06:00:49.044Z,17.15
2023-03-26T06:01:54.775Z,18.48
2023-03-26T06:02:57.691Z,16.02
2023-03-26T06:04:01.588Z,17.35
2023-03-26T06:05:05.453Z,18.33
2023-03-26T06:06:09.725Z,15.77
2023-03-26T06:07:13.811Z,17.73
2023-03-26T06:08:17.307Z,17.48
2023-03-26T06:09:19.864Z,15.50
2023-03-26T06:10:24.048Z,16.92
2023-03-26T06:11:26.515Z,18.15
2023-03-26T06:12:30.259Z,15.70
2023-03-26T06:14:36.348Z,15.88
2023-03-26T06:15:38.798Z,17.45
2023-03-26T06:16:42.492Z,17.38
2023-03-26T06:18:48.596Z,19.05
2023-03-26T06:19:59.459Z,18.00
2023-03-26T06:21:03.224Z,19.05
2023-03-26T06:22:06.270Z,16.05
2023-03-26T06:23:11.398Z,19.00
2023-03-26T06:24:16.651Z,16.15
2023-03-26T06:25:19.334Z,18.15
2023-03-26T06:26:22.929Z,18.77
2023-03-26T06:27:25.770Z,13.95
2023-03-26T06:28:29.417Z,17.63
2023-03-26T06:30:35.483Z,17.08
2023-03-26T06:31:37.977Z,15.60
2023-03-26T06:32:41.913Z,16.67
2023-03-26T06:33:44.435Z,16.58
2023-03-26T06:34:48.073Z,15.85
2023-03-26T06:37:56.396Z,14.43
2023-03-26T06:39:01.503Z,17.77
2023-03-26T06:40:11.408Z,16.02
2023-03-26T06:41:16.307Z,16.17
2023-03-26T06:43:22.298Z,18.45
2023-03-26T06:44:24.783Z,16.42
2023-03-26T06:45:28.427Z,16.58
2023-03-26T06:47:35.101Z,15.75
2023-03-26T06:48:38.058Z,19.00
2023-03-26T06:49:43.128Z,17.42
2023-03-26T06:50:47.752Z,17.08
2023-03-26T06:51:51.423Z,15.05
2023-03-26T06:53:57.603Z,13.82
2023-03-26T06:55:01.962Z,22.95
2023-03-26T06:56:07.169Z,17.27
2023-03-26T06:57:11.664Z,15.07
2023-03-26T06:58:16.959Z,14.90
2023-03-26T06:59:20.026Z,14.93
2023-03-26T07:00:24.205Z,16.17
2023-03-26T07:01:29.332Z,19.50
2023-03-26T07:02:33.189Z,18.30
2023-03-26T07:03:35.756Z,17.63
2023-03-26T07:04:39.537Z,18.42
2023-03-26T07:05:42.240Z,15.02
2023-03-26T07:06:46.185Z,17.85
2023-03-26T07:07:48.823Z,18.73
2023-03-26T07:08:52.492Z,18.13
2023-03-26T07:10:59.730Z,20.52
2023-03-26T07:12:02.260Z,16.23
2023-03-26T07:13:06.025Z,17.05
2023-03-26T07:14:08.508Z,17.45
2023-03-26T07:15:12.585Z,16.05
2023-03-26T07:16:15.479Z,15.75
2023-03-26T07:17:19.103Z,19.73
2023-03-26T07:18:22.037Z,18.02
2023-03-26T07:19:25.498Z,14.93
2023-03-26T07:20:28.628Z,15.82
2023-03-26T07:21:32.868Z,16.35
2023-03-26T07:22:36.434Z,17.13
2023-03-26T07:23:40.547Z,16.55
2023-03-26T07:24:44.122Z,14.93
2023-03-26T07:27:01.689Z,15.23
2023-03-26T07:28:14.900Z,17.13
2023-03-26T07:29:24.209Z,15.18
2023-03-26T07:30:34.024Z,16.42
2023-03-26T07:31:42.820Z,15.57
2023-03-26T07:32:54.627Z,16.02
2023-03-26T07:34:04.734Z,16.42
2023-03-26T07:35:15.360Z,15.73
2023-03-26T07:36:26.076Z,17.10
2023-03-26T07:37:42.145Z,18.55
2023-03-26T07:39:00.389Z,19.02
2023-03-26T07:40:11.989Z,20.63
2023-03-26T07:41:24.386Z,15.50
2023-03-26T07:42:42.432Z,16.88
2023-03-26T07:44:04.441Z,16.20
2023-03-26T07:45:21.233Z,16.55
2023-03-26T07:46:32.146Z,15.38
2023-03-26T07:47:37.820Z,17.80
2023-03-26T07:48:42.987Z,15.95
2023-03-26T07:49:47.525Z,15.00
2023-03-26T07:50:51.815Z,17.23
2023-03-26T07:51:54.841Z,16.88
2023-03-26T07:52:58.945Z,15.52
2023-03-26T07:54:04.356Z,15.30
2023-03-26T07:55:08.618Z,16.88
2023-03-26T07:56:17.003Z,15.73
2023-03-26T07:57:29.425Z,18.65
2023-03-26T07:59:01.699Z,19.17
2023-03-26T08:00:12.443Z,14.40
2023-03-26T08:01:24.060Z,13.93
2023-03-26T08:02:59.044Z,16.23
2023-03-26T08:04:23.783Z,14.93
2023-03-26T08:05:32.280Z,17.25
2023-03-26T08:06:36.862Z,13.70
2023-03-26T08:07:53.599Z,15.73
2023-03-26T08:09:06.196Z,16.77
2023-03-26T08:10:17.528Z,18.67
2023-03-26T08:11:31.520Z,20.55
2023-03-26T08:12:42.048Z,14.40
2023-03-26T08:14:02.198Z,14.20
2023-03-26T08:15:13.494Z,14.93
2023-03-26T08:16:24.848Z,16.95
2023-03-26T08:17:38.251Z,16.05
2023-03-26T08:18:50.828Z,14.27
2023-03-26T08:20:11.093Z,15.40
2023-03-26T08:21:20.926Z,14.93
2023-03-26T08:23:50.320Z,14.75
2023-03-26T08:25:19.070Z,15.77
2023-03-26T08:26:33.633Z,15.73
2023-03-26T08:27:41.219Z,13.95
2023-03-26T08:29:04.069Z,13.45
2023-03-26T08:30:15.029Z,15.25
2023-03-26T08:31:20.294Z,15.20
2023-03-26T08:32:23.836Z,14.77
2023-03-26T08:33:28.964Z,13.73
2023-03-26T08:34:32.540Z,15.90
2023-03-26T08:36:39.467Z,14.02
2023-03-26T08:37:42.112Z,14.57
2023-03-26T08:38:46.886Z,12.20
2023-03-26T08:39:49.633Z,14.50
2023-03-26T08:41:40.967Z,15.15
2023-03-26T08:43:14.886Z,16.45
2023-03-26T08:45:02.738Z,15.65
2023-03-26T08:46:45.757Z,13.68
2023-03-26T08:48:19.747Z,11.43
2023-03-26T08:49:47.653Z,14.68
2023-03-26T08:51:28.437Z,12.27
2023-03-26T08:52:54.912Z,15.40
2023-03-26T08:54:30.286Z,13.35
2023-03-26T08:55:46.741Z,13.85
2023-03-26T08:57:04.064Z,11.85
2023-03-26T08:59:00.443Z,13.38
2023-03-26T09:00:43.215Z,14.40
2023-03-26T09:02:19.777Z,16.08
2023-03-26T09:03:42.823Z,13.85
2023-03-26T09:05:20.392Z,13.80
2023-03-26T09:06:56.934Z,12.40
2023-03-26T09:08:54.237Z,11.88
2023-03-26T09:10:46.864Z,14.43
2023-03-26T09:12:14.580Z,13.52
2023-03-26T09:13:51.847Z,13.13
2023-03-26T09:15:21.242Z,15.48
2023-03-26T09:16:49.344Z,15.05
2023-03-26T09:18:26.757Z,12.10
2023-03-26T09:20:06.420Z,13.88
2023-03-26T09:21:44.592Z,13.80
2023-03-26T09:23:34.921Z,13.25
2023-03-26T09:25:32.460Z,10.88
2023-03-26T09:26:48.249Z,12.43
2023-03-26T09:28:22.180Z,11.75
2023-03-26T09:29:54.973Z,14.48
2023-03-26T09:31:22.408Z,11.50
2023-03-26T09:33:11.785Z,12.45
2023-03-26T09:34:29.288Z,13.88
2023-03-26T09:35:52.408Z,11.68
2023-03-26T09:36:58.004Z,11.80
2023-03-26T09:38:07.573Z,12.82
2023-03-26T09:39:17.526Z,11.32
2023-03-26T09:40:23.327Z,11.75
2023-03-26T09:41:37.281Z,11.38
2023-03-26T09:42:46.026Z,9.73
2023-03-26T09:44:32.927Z,12.43
2023-03-26T09:45:53.000Z,12.88
2023-03-26T09:47:14.003Z,11.27
2023-03-26T09:48:46.512Z,10.45
2023-03-26T09:49:55.671Z,13.73
2023-03-26T09:51:20.666Z,10.93
2023-03-26T09:53:01.628Z,10.75
2023-03-26T09:55:46.662Z,12.10
2023-03-26T09:56:58.100Z,9.52
2023-03-26T09:58:46.941Z,11.85
2023-03-26T10:00:19.166Z,10.35
2023-03-26T10:01:32.325Z,11.10
2023-03-26T10:02:58.971Z,10.43
2023-03-26T10:04:36.100Z,11.25
2023-03-26T10:06:12.196Z,10.10
2023-03-26T10:07:43.129Z,11.38
2023-03-26T10:09:23.940Z,10.00
2023-03-26T10:10:37.184Z,9.43
2023-03-26T10:12:03.851Z,10.68
2023-03-26T10:13:21.950Z,10.30
2023-03-26T10:14:34.221Z,10.45
2023-03-26T10:15:54.955Z,9.27
2023-03-26T10:17:13.760Z,11.30
2023-03-26T10:18:29.401Z,9.77
2023-03-26T10:20:58.438Z,10.40
2023-03-26T10:22:13.210Z,9.05
2023-03-26T10:23:28.096Z,9.10
2023-03-26T10:24:47.881Z,11.25
2023-03-26T10:26:09.983Z,9.18
2023-03-26T10:27:38.940Z,9.95
2023-03-26T10:29:17.562Z,8.02
2023-03-26T10:30:51.106Z,8.98
2023-03-26T10:32:07.714Z,7.97
2023-03-26T10:33:20.760Z,12.10
2023-03-26T10:34:45.841Z,9.15
2023-03-26T10:36:02.381Z,8.95
2023-03-26T10:37:11.925Z,9.15
2023-03-26T10:38:25.739Z,12.95
2023-03-26T10:40:01.212Z,8.88
2023-03-26T10:41:10.544Z,10.57
2023-03-26T10:42:49.877Z,9.93
2023-03-26T10:44:19.859Z,10.20
2023-03-26T10:45:52.387Z,8.52
2023-03-26T10:47:26.355Z,8.38
2023-03-26T10:48:54.140Z,9.07
2023-03-26T10:50:27.956Z,8.60
2023-03-26T10:51:48.821Z,9.82
2023-03-26T10:53:00.526Z,8.55
2023-03-26T10:54:09.840Z,8.63
2023-03-26T10:55:20.047Z,10.45
2023-03-26T10:56:27.824Z,10.73
2023-03-26T10:57:42.365Z,9.13
2023-03-26T10:58:49.380Z,8.90
2023-03-26T10:59:55.836Z,7.53
2023-03-26T11:01:04.038Z,9.55
2023-03-26T11:03:52.404Z,10.52
2023-03-26T11:05:04.958Z,9.60
2023-03-26T11:06:18.634Z,10.25
2023-03-26T11:07:28.502Z,10.32
2023-03-26T11:09:46.524Z,9.05
2023-03-26T11:10:57.618Z,9.75
2023-03-26T11:12:26.321Z,10.48
2023-03-26T11:13:44.568Z,11.48
2023-03-26T11:14:53.014Z,10.73
2023-03-26T11:16:03.330Z,10.10
2023-03-26T11:17:40.096Z,10.35
2023-03-26T11:18:50.712Z,11.38
2023-03-26T11:19:59.215Z,11.82
2023-03-26T11:21:18.873Z,11.48
2023-03-26T11:22:35.952Z,10.43
2023-03-26T11:23:47.709Z,10.35
2023-03-26T11:25:36.279Z,11.35
2023-03-26T11:26:50.774Z,10.52
2023-03-26T11:28:09.632Z,11.73
2023-03-26T11:29:36.559Z,10.57
2023-03-26T11:30:47.405Z,11.68
2023-03-26T11:32:00.943Z,11.65
2023-03-26T11:33:09.327Z,13.68
2023-03-26T11:34:16.641Z,11.50
2023-03-26T11:35:40.562Z,12.70
2023-03-26T11:36:50.876Z,12.98
2023-03-26T11:37:55.759Z,12.35
2023-03-26T11:39:04.612Z,11.40
2023-03-26T11:40:15.796Z,13.93
2023-03-26T11:41:23.467Z,13.43
2023-03-26T11:42:26.391Z,13.75
2023-03-26T11:43:35.670Z,14.27
2023-03-26T11:44:42.843Z,20.10
2023-03-26T11:45:49.202Z,13.60
2023-03-26T11:46:58.979Z,13.68
2023-03-26T11:48:09.722Z,14.50
2023-03-26T11:49:15.053Z,12.20
2023-03-26T11:50:23.285Z,16.35
2023-03-26T11:51:32.170Z,15.00
2023-03-26T11:52:34.844Z,16.88
2023-03-26T11:53:40.129Z,14.32
2023-03-26T11:54:49.714Z,15.93
2023-03-26T11:56:04.293Z,15.00
2023-03-26T11:57:11.366Z,17.27
2023-03-26T11:58:30.082Z,15.32
2023-03-26T11:59:48.926Z,15.65
2023-03-26T12:00:56.833Z,13.10
2023-03-26T12:02:17.645Z,16.90
2023-03-26T12:03:21.101Z,14.27
2023-03-26T12:04:29.993Z,16.85
2023-03-26T12:05:50.084Z,15.05
2023-03-26T12:06:56.812Z,13.68
2023-03-26T12:08:02.145Z,15.88
2023-03-26T12:09:04.727Z,16.58
2023-03-26T12:10:24.135Z,15.07
2023-03-26T12:11:35.631Z,13.73
2023-03-26T12:12:41.642Z,14.35
2023-03-26T12:13:52.190Z,15.20
2023-03-26T12:14:55.641Z,14.45
2023-03-26T12:16:02.703Z,15.63
2023-03-26T12:17:09.874Z,12.82
2023-03-26T12:18:25.982Z,12.23
2023-03-26T12:19:37.217Z,11.82
2023-03-26T12:20:39.734Z,15.38
2023-03-26T12:21:47.790Z,21.80
2023-03-26T12:22:52.401Z,15.07
2023-03-26T12:23:59.285Z,14.27
2023-03-26T12:25:03.950Z,12.23
2023-03-26T12:26:17.023Z,12.98
2023-03-26T12:27:28.629Z,12.82
2023-03-26T12:28:33.680Z,13.48
2023-03-26T12:29:37.428Z,15.77
2023-03-26T12:30:42.528Z,12.82
2023-03-26T12:32:04.389Z,16.15
2023-03-26T12:33:14.560Z,12.35
2023-03-26T12:34:21.391Z,14.85
2023-03-26T12:35:28.167Z,13.13
2023-03-26T12:36:33.542Z,12.85
2023-03-26T12:37:38.857Z,13.55
2023-03-26T12:38:42.684Z,12.43
2023-03-26T12:40:08.661Z,13.38
2023-03-26T12:44:42.500Z,15.77
2023-03-26T12:44:49.666Z,15.07
2023-03-26T12:44:56.211Z,14.25
2023-03-26T12:47:55.431Z,13.40
2023-03-26T12:47:58.376Z,13.98
2023-03-26T12:48:44.591Z,14.27
2023-03-26T12:49:50.380Z,15.90
2023-03-26T12:51:11.448Z,14.27
2023-03-26T12:52:38.728Z,15.30
2023-03-26T12:53:58.200Z,12.90
2023-03-26T12:55:12.068Z,15.02
2023-03-26T12:56:24.346Z,15.82
2023-03-26T12:57:33.786Z,14.40
2023-03-26T12:58:55.231Z,11.93
2023-03-26T13:00:11.664Z,11.48
2023-03-26T13:01:26.647Z,15.20
2023-03-26T13:03:11.503Z,12.02
2023-03-26T13:04:38.941Z,15.00
2023-03-26T13:05:53.344Z,15.70
2023-03-26T13:07:02.610Z,15.43
2023-03-26T13:08:32.871Z,13.07
2023-03-26T13:09:53.222Z,13.30
2023-03-26T13:11:07.251Z,12.48
2023-03-26T13:12:26.080Z,12.50
2023-03-26T13:13:57.198Z,14.27
2023-03-26T13:15:14.529Z,13.30
2023-03-26T13:16:26.309Z,14.93
2023-03-26T13:17:41.476Z,15.75
2023-03-26T13:18:52.135Z,14.57
2023-03-26T13:20:12.378Z,18.33
2023-03-26T13:21:25.304Z,16.83
2023-03-26T13:22:39.323Z,13.35
2023-03-26T13:23:52.826Z,20.75
2023-03-26T13:25:02.065Z,15.35
2023-03-26T13:26:18.244Z,16.45
2023-03-26T13:27:38.337Z,15.10
2023-03-26T13:28:54.741Z,18.85
2023-03-26T13:30:03.260Z,16.88
2023-03-26T13:31:22.556Z,14.70
2023-03-26T13:32:37.587Z,14.18
2023-03-26T13:33:51.280Z,16.88
2023-03-26T13:35:06.553Z,17.52
2023-03-26T13:36:24.189Z,14.32
2023-03-26T13:37:36.440Z,17.75
2023-03-26T13:38:58.952Z,15.70
2023-03-26T13:40:17.570Z,13.18
2023-03-26T13:41:31.719Z,20.00
2023-03-26T13:42:48.201Z,18.67
2023-03-26T13:44:01.945Z,15.15
2023-03-26T13:45:15.596Z,13.48
2023-03-26T13:46:28.732Z,13.73
2023-03-26T13:47:36.063Z,19.73
2023-03-26T13:48:45.123Z,18.58
2023-03-26T13:49:56.981Z,14.15
2023-03-26T13:51:06.910Z,14.63
2023-03-26T13:52:16.323Z,15.85
2023-03-26T13:53:25.942Z,15.80
2023-03-26T13:54:33.562Z,20.95
2023-03-26T13:55:40.438Z,20.05
2023-03-26T13:56:49.809Z,16.20
2023-03-26T13:58:03.442Z,13.77
2023-03-26T13:59:12.894Z,14.05
2023-03-26T14:00:22.127Z,17.60
2023-03-26T14:01:35.138Z,14.65
2023-03-26T14:02:43.200Z,13.02
2023-03-26T14:03:59.264Z,16.13
2023-03-26T14:05:09.198Z,11.82
2023-03-26T14:06:30.160Z,16.00
2023-03-26T14:07:40.165Z,15.05
2023-03-26T14:08:47.459Z,16.25
2023-03-26T14:09:58.668Z,16.10
2023-03-26T14:11:11.110Z,14.23
2023-03-26T14:12:33.669Z,12.93
2023-03-26T14:13:50.537Z,14.32
2023-03-26T14:14:58.304Z,14.65
2023-03-26T14:16:06.769Z,15.77
2023-03-26T14:17:17.468Z,16.23
2023-03-26T14:18:31.237Z,12.45
2023-03-26T14:19:57.861Z,14.75
2023-03-26T14:21:34.529Z,14.15
2023-03-26T14:22:54.684Z,13.73
2023-03-26T14:24:44.151Z,15.52
2023-03-26T14:26:00.303Z,11.93
2023-03-26T14:27:20.223Z,19.20
2023-03-26T14:28:53.963Z,16.90
2023-03-26T14:30:29.605Z,18.02
2023-03-26T14:31:37.892Z,13.63
2023-03-26T14:33:03.381Z,14.20
2023-03-26T14:34:24.569Z,14.63
2023-03-26T14:35:37.828Z,21.80
2023-03-26T14:37:06.292Z,16.98
2023-03-26T14:38:48.138Z,16.30
2023-03-26T14:40:15.085Z,16.73
2023-03-26T14:41:25.540Z,19.67
2023-03-26T14:42:41.600Z,16.70
2023-03-26T14:45:54.427Z,14.32
2023-03-26T14:47:17.173Z,14.32
2023-03-26T14:48:44.156Z,17.67
2023-03-26T14:50:21.748Z,16.20
2023-03-26T14:51:37.852Z,20.30
2023-03-26T14:52:48.344Z,19.08
2023-03-26T14:53:55.968Z,22.35
2023-03-26T14:55:04.275Z,18.50
2023-03-26T14:56:27.530Z,18.27
2023-03-26T14:58:09.672Z,16.20
2023-03-26T14:59:57.757Z,18.60
2023-03-26T15:01:25.362Z,20.00
2023-03-26T15:03:12.845Z,18.38
2023-03-26T15:05:08.471Z,18.40
2023-03-26T15:06:38.307Z,19.10
2023-03-26T15:08:16.685Z,16.13
2023-03-26T15:10:06.006Z,19.13
2023-03-26T15:11:28.769Z,13.05
2023-03-26T15:13:03.953Z,16.58
2023-03-26T15:14:46.213Z,16.23
2023-03-26T15:16:17.823Z,14.77
2023-03-26T15:17:58.082Z,14.48
2023-03-26T15:19:39.393Z,15.95
2023-03-26T15:21:22.691Z,14.82
2023-03-26T15:23:05.521Z,13.40
2023-03-26T15:24:40.147Z,15.80
2023-03-26T15:26:25.193Z,15.65
2023-03-26T15:28:13.219Z,13.15
2023-03-26T15:29:49.595Z,15.02
2023-03-26T15:31:14.280Z,13.07
2023-03-26T15:33:14.747Z,13.35
2023-03-26T15:34:58.660Z,16.73
2023-03-26T15:36:18.843Z,11.85
2023-03-26T15:37:41.362Z,13.68
2023-03-26T15:39:38.344Z,11.93
2023-03-26T15:41:08.496Z,15.35
2023-03-26T15:42:22.471Z,13.80
2023-03-26T15:43:33.363Z,14.38
2023-03-26T15:44:53.904Z,13.02
2023-03-26T15:46:32.713Z,14.75
2023-03-26T15:47:56.407Z,13.57
2023-03-26T15:49:12.521Z,11.93
2023-03-26T15:50:27.366Z,12.93
2023-03-26T15:51:46.348Z,14.55
2023-03-26T15:52:57.311Z,12.50
2023-03-26T15:56:33.398Z,9.13
2023-03-26T15:57:44.336Z,9.25
2023-03-26T15:58:54.187Z,11.23
2023-03-26T16:01:34.176Z,10.95
2023-03-26T16:02:43.860Z,13.63
2023-03-26T16:03:56.064Z,13.75
2023-03-26T16:05:09.583Z,14.70
2023-03-26T16:06:31.396Z,11.85
2023-03-26T16:07:54.535Z,12.93
2023-03-26T16:09:22.947Z,13.18
2023-03-26T16:10:35.277Z,14.63
2023-03-26T16:11:52.900Z,12.55
2023-03-26T16:13:13.112Z,13.80
2023-03-26T16:14:20.890Z,13.32
2023-03-26T16:15:29.972Z,14.18
2023-03-26T16:17:23.460Z,11.57
2023-03-26T16:19:56.417Z,13.77
2023-03-26T16:21:34.973Z,12.73
2023-03-26T16:22:56.236Z,11.98
2023-03-26T16:24:18.695Z,14.90